sensor_id;sensor_type;location;lat;lon;timestamp;pressure;altitude;pressure_sealevel;temperature;humidity
56894;BME280;43392;50.078;13.704;2022-10-30T00:00:46;97565.75;;;12.71;95.25
56894;BME280;43392;50.078;13.704;2022-10-30T00:03:13;97559.03;;;12.63;94.42
56894;BME280;43392;50.078;13.704;2022-10-30T00:05:41;97560.38;;;12.65;94.84
56894;BME280;43392;50.078;13.704;2022-10-30T00:08:10;97553.94;;;12.67;94.94
56894;BME280;43392;50.078;13.704;2022-10-30T00:10:37;97562.78;;;12.72;94.72
56894;BME280;43392;50.078;13.704;2022-10-30T00:13:07;97556.84;;;12.75;94.68
56894;BME280;43392;50.078;13.704;2022-10-30T00:15:34;97548.78;;;12.80;94.47
56894;BME280;43392;50.078;13.704;2022-10-30T00:18:00;97550.91;;;12.88;94.63
56894;BME280;43392;50.078;13.704;2022-10-30T00:20:27;97556.78;;;12.95;94.31
56894;BME280;43392;50.078;13.704;2022-10-30T00:22:54;97550.28;;;13.01;94.19
56894;BME280;43392;50.078;13.704;2022-10-30T00:25:22;97544.34;;;13.04;93.92
56894;BME280;43392;50.078;13.704;2022-10-30T00:27:49;97547.59;;;13.06;94.11
56894;BME280;43392;50.078;13.704;2022-10-30T00:30:15;97552.72;;;13.08;94.32
56894;BME280;43392;50.078;13.704;2022-10-30T00:32:43;97544.09;;;13.11;94.36
56894;BME280;43392;50.078;13.704;2022-10-30T00:35:10;97545.16;;;13.15;94.17
56894;BME280;43392;50.078;13.704;2022-10-30T00:37:36;97549.72;;;13.19;94.47
56894;BME280;43392;50.078;13.704;2022-10-30T00:40:04;97552.63;;;13.23;94.32
56894;BME280;43392;50.078;13.704;2022-10-30T00:42:32;97551.28;;;13.25;93.90
56894;BME280;43392;50.078;13.704;2022-10-30T00:44:59;97550.22;;;13.26;93.70
56894;BME280;43392;50.078;13.704;2022-10-30T00:47:28;97536.47;;;13.23;93.84
56894;BME280;43392;50.078;13.704;2022-10-30T00:49:58;97543.72;;;13.27;93.78
56894;BME280;43392;50.078;13.704;2022-10-30T00:52:28;97549.91;;;13.28;94.15
56894;BME280;43392;50.078;13.704;2022-10-30T00:54:57;97546.69;;;13.26;94.08
56894;BME280;43392;50.078;13.704;2022-10-30T00:57:25;97539.41;;;13.32;93.89
56894;BME280;43392;50.078;13.704;2022-10-30T00:59:53;97545.59;;;13.32;94.00
56894;BME280;43392;50.078;13.704;2022-10-30T01:02:20;97545.88;;;13.30;93.86
56894;BME280;43392;50.078;13.704;2022-10-30T01:04:48;97529.75;;;13.20;93.53
56894;BME280;43392;50.078;13.704;2022-10-30T01:07:16;97526.03;;;13.11;93.77
56894;BME280;43392;50.078;13.704;2022-10-30T01:09:44;97523.38;;;13.06;93.67
56894;BME280;43392;50.078;13.704;2022-10-30T01:12:12;97532.78;;;13.09;94.15
56894;BME280;43392;50.078;13.704;2022-10-30T01:14:41;97523.91;;;13.08;93.75
56894;BME280;43392;50.078;13.704;2022-10-30T01:20:25;97532.25;;;13.02;93.67
56894;BME280;43392;50.078;13.704;2022-10-30T01:23:00;97525.53;;;12.99;94.15
56894;BME280;43392;50.078;13.704;2022-10-30T01:25:37;97515.56;;;13.00;94.35
56894;BME280;43392;50.078;13.704;2022-10-30T01:28:16;97522.81;;;13.04;94.55
56894;BME280;43392;50.078;13.704;2022-10-30T01:30:57;97519.88;;;13.06;94.25
56894;BME280;43392;50.078;13.704;2022-10-30T01:33:35;97517.19;;;13.06;94.45
56894;BME280;43392;50.078;13.704;2022-10-30T01:36:13;97519.03;;;13.10;94.13
56894;BME280;43392;50.078;13.704;2022-10-30T01:38:46;97500.22;;;13.05;94.01
56894;BME280;43392;50.078;13.704;2022-10-30T01:41:14;97522.81;;;13.09;93.98
56894;BME280;43392;50.078;13.704;2022-10-30T01:43:41;97530.91;;;13.09;93.71
56894;BME280;43392;50.078;13.704;2022-10-30T01:46:28;97515.28;;;13.06;93.99
56894;BME280;43392;50.078;13.704;2022-10-30T01:49:10;97514.22;;;13.07;94.19
56894;BME280;43392;50.078;13.704;2022-10-30T01:51:50;97507.22;;;13.06;94.07
56894;BME280;43392;50.078;13.704;2022-10-30T01:54:29;97509.91;;;13.06;93.83
56894;BME280;43392;50.078;13.704;2022-10-30T01:57:02;97507.22;;;13.06;93.61
56894;BME280;43392;50.078;13.704;2022-10-30T01:59:34;97508.03;;;13.07;94.09
56894;BME280;43392;50.078;13.704;2022-10-30T02:02:02;97516.38;;;13.05;93.80
56894;BME280;43392;50.078;13.704;2022-10-30T02:04:30;97508.31;;;13.00;93.62
56894;BME280;43392;50.078;13.704;2022-10-30T02:06:58;97516.63;;;13.04;93.62
56894;BME280;43392;50.078;13.704;2022-10-30T02:09:25;97513.41;;;13.02;93.64
56894;BME280;43392;50.078;13.704;2022-10-30T02:11:52;97516.91;;;13.02;93.99
56894;BME280;43392;50.078;13.704;2022-10-30T02:14:23;97512.34;;;13.03;93.49
56894;BME280;43392;50.078;13.704;2022-10-30T02:16:53;97516.09;;;13.02;93.81
56894;BME280;43392;50.078;13.704;2022-10-30T02:19:22;97508.31;;;13.00;93.58
56894;BME280;43392;50.078;13.704;2022-10-30T02:21:50;97504.00;;;12.99;94.00
56894;BME280;43392;50.078;13.704;2022-10-30T02:24:17;97510.19;;;13.00;93.57
56894;BME280;43392;50.078;13.704;2022-10-30T02:26:44;97521.47;;;13.02;93.86
56894;BME280;43392;50.078;13.704;2022-10-30T02:29:11;97509.91;;;13.01;93.96
56894;BME280;43392;50.078;13.704;2022-10-30T02:31:37;97512.06;;;13.04;93.36
56894;BME280;43392;50.078;13.704;2022-10-30T02:34:04;97507.47;;;13.05;93.21
56894;BME280;43392;50.078;13.704;2022-10-30T02:36:31;97504.53;;;13.06;93.26
56894;BME280;43392;50.078;13.704;2022-10-30T02:38:59;97506.41;;;13.06;93.34
56894;BME280;43392;50.078;13.704;2022-10-30T02:41:26;97495.91;;;13.04;92.89
56894;BME280;43392;50.078;13.704;2022-10-30T02:43:52;97494.03;;;13.05;93.20
56894;BME280;43392;50.078;13.704;2022-10-30T02:46:19;97488.63;;;13.05;93.12
56894;BME280;43392;50.078;13.704;2022-10-30T02:48:46;97494.81;;;13.05;92.80
56894;BME280;43392;50.078;13.704;2022-10-30T02:51:13;97480.56;;;13.05;93.15
56894;BME280;43392;50.078;13.704;2022-10-30T02:53:39;97494.03;;;13.05;92.99
56894;BME280;43392;50.078;13.704;2022-10-30T02:56:09;97498.34;;;13.06;92.89
56894;BME280;43392;50.078;13.704;2022-10-30T02:58:37;97492.94;;;13.01;92.80
56894;BME280;43392;50.078;13.704;2022-10-30T03:01:05;97498.06;;;13.02;92.90
56894;BME280;43392;50.078;13.704;2022-10-30T03:03:32;97499.44;;;13.00;93.16
56894;BME280;43392;50.078;13.704;2022-10-30T03:05:59;97483.53;;;12.98;92.71
56894;BME280;43392;50.078;13.704;2022-10-30T03:08:26;97481.13;;;12.97;93.05
56894;BME280;43392;50.078;13.704;2022-10-30T03:10:58;97490.00;;;12.97;92.99
56894;BME280;43392;50.078;13.704;2022-10-30T03:13:26;97482.22;;;12.96;93.07
56894;BME280;43392;50.078;13.704;2022-10-30T03:15:58;97483.00;;;12.96;93.00
56894;BME280;43392;50.078;13.704;2022-10-30T03:18:25;97490.00;;;12.97;92.98
56894;BME280;43392;50.078;13.704;2022-10-30T03:20:55;97488.91;;;12.98;92.60
56894;BME280;43392;50.078;13.704;2022-10-30T03:23:22;97480.84;;;12.98;92.84
56894;BME280;43392;50.078;13.704;2022-10-30T03:25:51;97477.63;;;12.96;92.37
56894;BME280;43392;50.078;13.704;2022-10-30T03:28:18;97491.06;;;13.01;92.56
56894;BME280;43392;50.078;13.704;2022-10-30T03:30:46;97486.81;;;12.95;91.06
56894;BME280;43392;50.078;13.704;2022-10-30T03:33:13;97479.38;;;12.72;90.78
56894;BME280;43392;50.078;13.704;2022-10-30T03:35:39;97478.63;;;12.61;91.69
56894;BME280;43392;50.078;13.704;2022-10-30T03:38:08;97472.69;;;12.59;91.96
56894;BME280;43392;50.078;13.704;2022-10-30T03:40:34;97490.72;;;12.59;91.06
56894;BME280;43392;50.078;13.704;2022-10-30T03:43:01;97494.03;;;12.36;90.35
56894;BME280;43392;50.078;13.704;2022-10-30T03:45:27;97492.75;;;12.13;90.68
56894;BME280;43392;50.078;13.704;2022-10-30T03:47:55;97494.34;;;12.04;91.55
56894;BME280;43392;50.078;13.704;2022-10-30T03:50:22;97499.47;;;12.06;92.02
56894;BME280;43392;50.078;13.704;2022-10-30T03:52:48;97504.03;;;12.10;92.39
56894;BME280;43392;50.078;13.704;2022-10-30T03:55:15;97502.16;;;12.16;92.07
56894;BME280;43392;50.078;13.704;2022-10-30T03:57:42;97501.06;;;12.22;92.27
56894;BME280;43392;50.078;13.704;2022-10-30T04:00:10;97495.94;;;12.25;92.23
56894;BME280;43392;50.078;13.704;2022-10-30T04:02:36;97499.41;;;12.31;92.49
56894;BME280;43392;50.078;13.704;2022-10-30T04:05:05;97495.66;;;12.37;92.71
56894;BME280;43392;50.078;13.704;2022-10-30T04:07:31;97488.38;;;12.42;92.58
56894;BME280;43392;50.078;13.704;2022-10-30T04:09:58;97483.75;;;12.48;92.49
56894;BME280;43392;50.078;13.704;2022-10-30T04:12:25;97479.47;;;12.52;93.05
56894;BME280;43392;50.078;13.704;2022-10-30T04:14:51;97477.31;;;12.54;92.71
56894;BME280;43392;50.078;13.704;2022-10-30T04:17:18;97477.00;;;12.55;92.66
56894;BME280;43392;50.078;13.704;2022-10-30T04:19:45;97475.66;;;12.58;92.70
56894;BME280;43392;50.078;13.704;2022-10-30T04:22:13;97472.97;;;12.58;92.70
56894;BME280;43392;50.078;13.704;2022-10-30T04:24:39;97468.13;;;12.60;92.75
56894;BME280;43392;50.078;13.704;2022-10-30T04:27:06;97461.66;;;12.61;93.09
56894;BME280;43392;50.078;13.704;2022-10-30T04:29:32;97460.56;;;12.62;92.89
56894;BME280;43392;50.078;13.704;2022-10-30T04:31:59;97464.06;;;12.62;92.97
56894;BME280;43392;50.078;13.704;2022-10-30T04:34:26;97468.09;;;12.65;92.77
56894;BME280;43392;50.078;13.704;2022-10-30T04:36:52;97463.22;;;12.67;92.74
56894;BME280;43392;50.078;13.704;2022-10-30T04:39:21;97454.34;;;12.72;92.65
56894;BME280;43392;50.078;13.704;2022-10-30T04:41:47;97450.28;;;12.74;92.39
56894;BME280;43392;50.078;13.704;2022-10-30T04:44:14;97458.63;;;12.78;91.98
56894;BME280;43392;50.078;13.704;2022-10-30T04:46:40;97454.88;;;12.79;91.95
56894;BME280;43392;50.078;13.704;2022-10-30T04:49:07;97450.25;;;12.79;92.07
56894;BME280;43392;50.078;13.704;2022-10-30T04:51:34;97447.56;;;12.79;91.48
56894;BME280;43392;50.078;13.704;2022-10-30T04:54:00;97445.44;;;12.81;91.39
56894;BME280;43392;50.078;13.704;2022-10-30T04:56:28;97459.41;;;12.83;91.26
56894;BME280;43392;50.078;13.704;2022-10-30T04:58:57;97452.69;;;12.81;91.31
56894;BME280;43392;50.078;13.704;2022-10-30T05:01:24;97444.03;;;12.84;91.09
56894;BME280;43392;50.078;13.704;2022-10-30T05:03:50;97436.78;;;12.84;90.98
56894;BME280;43392;50.078;13.704;2022-10-30T05:06:20;97435.97;;;12.84;91.32
56894;BME280;43392;50.078;13.704;2022-10-30T05:08:48;97438.94;;;12.82;91.25
56894;BME280;43392;50.078;13.704;2022-10-30T05:11:15;97435.44;;;12.82;91.08
56894;BME280;43392;50.078;13.704;2022-10-30T05:13:43;97428.72;;;12.79;91.02
56894;BME280;43392;50.078;13.704;2022-10-30T05:16:10;97425.53;;;12.77;91.00
56894;BME280;43392;50.078;13.704;2022-10-30T05:18:37;97426.03;;;12.79;91.14
56894;BME280;43392;50.078;13.704;2022-10-30T05:21:03;97424.69;;;12.82;90.85
56894;BME280;43392;50.078;13.704;2022-10-30T05:23:30;97434.38;;;12.83;90.99
56894;BME280;43392;50.078;13.704;2022-10-30T05:25:58;97430.59;;;12.84;90.77
56894;BME280;43392;50.078;13.704;2022-10-30T05:28:25;97446.47;;;12.85;90.24
56894;BME280;43392;50.078;13.704;2022-10-30T05:30:53;97460.44;;;12.87;90.09
56894;BME280;43392;50.078;13.704;2022-10-30T05:33:20;97449.44;;;12.84;89.78
56894;BME280;43392;50.078;13.704;2022-10-30T05:35:47;97461.66;;;12.61;88.46
56894;BME280;43392;50.078;13.704;2022-10-30T05:38:13;97467.41;;;12.39;89.35
56894;BME280;43392;50.078;13.704;2022-10-30T05:40:40;97462.88;;;12.20;89.87
56894;BME280;43392;50.078;13.704;2022-10-30T05:43:06;97459.69;;;12.03;90.15
56894;BME280;43392;50.078;13.704;2022-10-30T05:45:33;97465.09;;;11.87;90.41
56894;BME280;43392;50.078;13.704;2022-10-30T05:48:02;97465.09;;;11.77;90.49
56894;BME280;43392;50.078;13.704;2022-10-30T05:50:30;97471.00;;;11.64;90.61
56894;BME280;43392;50.078;13.704;2022-10-30T05:52:57;97475.28;;;11.60;91.07
56894;BME280;43392;50.078;13.704;2022-10-30T05:55:24;97465.63;;;11.64;91.30
56894;BME280;43392;50.078;13.704;2022-10-30T05:57:54;97472.09;;;11.68;91.48
56894;BME280;43392;50.078;13.704;2022-10-30T06:00:21;97476.41;;;11.74;91.35
56894;BME280;43392;50.078;13.704;2022-10-30T06:02:47;97479.09;;;11.79;90.96
56894;BME280;43392;50.078;13.704;2022-10-30T06:05:15;97472.09;;;11.78;90.82
56894;BME280;43392;50.078;13.704;2022-10-30T06:07:42;97482.56;;;11.80;90.85
56894;BME280;43392;50.078;13.704;2022-10-30T06:10:09;97483.91;;;11.77;90.42
56894;BME280;43392;50.078;13.704;2022-10-30T06:12:35;97494.66;;;11.67;90.30
56894;BME280;43392;50.078;13.704;2022-10-30T06:15:02;97489.53;;;11.56;90.31
56894;BME280;43392;50.078;13.704;2022-10-30T06:17:29;97478.25;;;11.49;90.79
56894;BME280;43392;50.078;13.704;2022-10-30T06:19:56;97487.13;;;11.49;91.04
56894;BME280;43392;50.078;13.704;2022-10-30T06:22:24;97490.34;;;11.51;90.99
56894;BME280;43392;50.078;13.704;2022-10-30T06:24:50;97502.69;;;11.47;90.32
56894;BME280;43392;50.078;13.704;2022-10-30T06:27:17;97509.09;;;11.36;89.78
56894;BME280;43392;50.078;13.704;2022-10-30T06:29:43;97499.41;;;11.15;90.12
56894;BME280;43392;50.078;13.704;2022-10-30T06:32:10;97508.53;;;11.09;90.71
56894;BME280;43392;50.078;13.704;2022-10-30T06:34:36;97516.31;;;11.05;90.83
56894;BME280;43392;50.078;13.704;2022-10-30T06:37:03;97498.84;;;11.03;91.06
56894;BME280;43392;50.078;13.704;2022-10-30T06:39:31;97501.81;;;11.06;91.36
56894;BME280;43392;50.078;13.704;2022-10-30T06:41:57;97502.09;;;11.10;91.32
56894;BME280;43392;50.078;13.704;2022-10-30T06:44:24;97495.16;;;11.19;91.63
56894;BME280;43392;50.078;13.704;2022-10-30T06:46:51;97498.09;;;11.27;91.25
56894;BME280;43392;50.078;13.704;2022-10-30T06:49:18;97508.56;;;11.34;91.30
56894;BME280;43392;50.078;13.704;2022-10-30T06:51:45;97523.09;;;11.43;91.09
56894;BME280;43392;50.078;13.704;2022-10-30T06:54:12;97513.41;;;11.32;90.53
56894;BME280;43392;50.078;13.704;2022-10-30T06:56:40;97503.47;;;11.22;90.86
56894;BME280;43392;50.078;13.704;2022-10-30T06:59:07;97500.78;;;11.22;91.52
56894;BME280;43392;50.078;13.704;2022-10-30T07:01:33;97508.56;;;11.29;91.31
56894;BME280;43392;50.078;13.704;2022-10-30T07:04:00;97498.38;;;11.31;91.35
56894;BME280;43392;50.078;13.704;2022-10-30T07:06:27;97495.97;;;11.34;91.39
56894;BME280;43392;50.078;13.704;2022-10-30T07:08:54;97516.13;;;11.42;91.42
56894;BME280;43392;50.078;13.704;2022-10-30T07:11:20;97517.44;;;11.40;91.36
56894;BME280;43392;50.078;13.704;2022-10-30T07:13:48;97497.59;;;11.41;91.48
56894;BME280;43392;50.078;13.704;2022-10-30T07:16:15;97505.63;;;11.56;91.52
56894;BME280;43392;50.078;13.704;2022-10-30T07:18:42;97508.91;;;11.73;91.30
56894;BME280;43392;50.078;13.704;2022-10-30T07:21:08;97507.28;;;11.87;91.14
56894;BME280;43392;50.078;13.704;2022-10-30T07:23:35;97511.84;;;12.02;90.97
56894;BME280;43392;50.078;13.704;2022-10-30T07:26:01;97518.03;;;12.02;90.31
56894;BME280;43392;50.078;13.704;2022-10-30T07:28:28;97514.28;;;11.98;90.37
56894;BME280;43392;50.078;13.704;2022-10-30T07:30:58;97513.47;;;11.92;90.15
56894;BME280;43392;50.078;13.704;2022-10-30T07:33:24;97503.81;;;11.91;90.49
56894;BME280;43392;50.078;13.704;2022-10-30T07:35:51;97504.59;;;11.97;90.56
56894;BME280;43392;50.078;13.704;2022-10-30T07:38:18;97509.69;;;12.04;90.55
56894;BME280;43392;50.078;13.704;2022-10-30T07:40:51;97515.59;;;12.06;90.80
56894;BME280;43392;50.078;13.704;2022-10-30T07:43:17;97519.91;;;12.07;90.86
56894;BME280;43392;50.078;13.704;2022-10-30T07:45:44;97522.56;;;12.12;90.81
56894;BME280;43392;50.078;13.704;2022-10-30T07:48:12;97510.22;;;12.16;91.14
56894;BME280;43392;50.078;13.704;2022-10-30T07:50:39;97519.06;;;12.21;91.28
56894;BME280;43392;50.078;13.704;2022-10-30T07:53:06;97526.88;;;12.28;91.04
56894;BME280;43392;50.078;13.704;2022-10-30T07:55:32;97525.78;;;12.29;90.75
56894;BME280;43392;50.078;13.704;2022-10-30T07:57:59;97529.28;;;12.29;90.36
56894;BME280;43392;50.078;13.704;2022-10-30T08:00:25;97528.75;;;12.27;90.80
56894;BME280;43392;50.078;13.704;2022-10-30T08:02:55;97525.53;;;12.25;90.77
56894;BME280;43392;50.078;13.704;2022-10-30T08:05:23;97525.78;;;12.24;91.00
56894;BME280;43392;50.078;13.704;2022-10-30T08:07:50;97537.06;;;12.36;91.69
56894;BME280;43392;50.078;13.704;2022-10-30T08:10:17;97526.28;;;12.46;91.22
56894;BME280;43392;50.078;13.704;2022-10-30T08:12:43;97531.66;;;12.46;90.75
56894;BME280;43392;50.078;13.704;2022-10-30T08:15:12;97527.09;;;12.41;90.98
56894;BME280;43392;50.078;13.704;2022-10-30T08:17:42;97530.88;;;12.35;90.89
56894;BME280;43392;50.078;13.704;2022-10-30T08:20:10;97529.81;;;12.31;90.83
56894;BME280;43392;50.078;13.704;2022-10-30T08:22:45;97531.16;;;12.34;91.09
56894;BME280;43392;50.078;13.704;2022-10-30T08:25:12;97530.59;;;12.37;90.85
56894;BME280;43392;50.078;13.704;2022-10-30T08:27:48;97517.69;;;12.39;91.05
56894;BME280;43392;50.078;13.704;2022-10-30T08:30:15;97521.94;;;12.50;90.98
56894;BME280;43392;50.078;13.704;2022-10-30T08:32:42;97516.00;;;12.58;90.82
56894;BME280;43392;50.078;13.704;2022-10-30T08:35:09;97513.56;;;12.67;90.66
56894;BME280;43392;50.078;13.704;2022-10-30T08:37:35;97509.78;;;12.73;90.17
56894;BME280;43392;50.078;13.704;2022-10-30T08:40:04;97507.88;;;12.78;90.06
56894;BME280;43392;50.078;13.704;2022-10-30T08:42:31;97508.41;;;12.80;90.49
56894;BME280;43392;50.078;13.704;2022-10-30T08:44:58;97508.63;;;12.84;90.54
56894;BME280;43392;50.078;13.704;2022-10-30T08:47:24;97521.81;;;12.90;90.34
56894;BME280;43392;50.078;13.704;2022-10-30T08:49:51;97519.13;;;12.90;90.37
56894;BME280;43392;50.078;13.704;2022-10-30T08:52:17;97516.97;;;12.92;90.62
56894;BME280;43392;50.078;13.704;2022-10-30T08:54:45;97516.16;;;12.92;90.28
56894;BME280;43392;50.078;13.704;2022-10-30T08:57:13;97514.25;;;12.97;90.01
56894;BME280;43392;50.078;13.704;2022-10-30T08:59:40;97520.16;;;12.99;90.10
56894;BME280;43392;50.078;13.704;2022-10-30T09:02:07;97516.91;;;13.02;89.93
56894;BME280;43392;50.078;13.704;2022-10-30T09:04:34;97523.38;;;13.06;89.94
56894;BME280;43392;50.078;13.704;2022-10-30T09:07:01;97519.59;;;13.12;89.43
56894;BME280;43392;50.078;13.704;2022-10-30T09:09:27;97519.56;;;13.17;89.25
56894;BME280;43392;50.078;13.704;2022-10-30T09:11:54;97523.31;;;13.21;89.17
56894;BME280;43392;50.078;13.704;2022-10-30T09:14:22;97526.22;;;13.25;89.19
56894;BME280;43392;50.078;13.704;2022-10-30T09:16:48;97526.19;;;13.30;89.11
56894;BME280;43392;50.078;13.704;2022-10-30T09:19:15;97517.56;;;13.33;88.71
56894;BME280;43392;50.078;13.704;2022-10-30T09:21:41;97516.72;;;13.38;88.61
56894;BME280;43392;50.078;13.704;2022-10-30T09:24:08;97518.31;;;13.44;88.47
56894;BME280;43392;50.078;13.704;2022-10-30T09:26:35;97522.56;;;13.50;88.34
56894;BME280;43392;50.078;13.704;2022-10-30T09:29:01;97518.25;;;13.54;88.39
56894;BME280;43392;50.078;13.704;2022-10-30T09:31:29;97516.59;;;13.58;88.50
56894;BME280;43392;50.078;13.704;2022-10-30T09:33:56;97526.53;;;13.62;88.36
56894;BME280;43392;50.078;13.704;2022-10-30T09:36:22;97527.31;;;13.68;88.83
56894;BME280;43392;50.078;13.704;2022-10-30T09:38:49;97522.94;;;13.72;88.79
56894;BME280;43392;50.078;13.704;2022-10-30T09:41:27;97521.25;;;13.81;88.43
56894;BME280;43392;50.078;13.704;2022-10-30T09:44:07;97518.78;;;13.89;88.34
56894;BME280;43392;50.078;13.704;2022-10-30T09:46:53;97521.66;;;13.98;88.08
56894;BME280;43392;50.078;13.704;2022-10-30T09:49:53;97514.84;;;14.06;87.57
56894;BME280;43392;50.078;13.704;2022-10-30T09:52:27;97515.31;;;14.13;88.02
56894;BME280;43392;50.078;13.704;2022-10-30T09:57:59;97513.03;;;14.25;87.60
56894;BME280;43392;50.078;13.704;2022-10-30T10:00:32;97516.53;;;14.30;87.70
56894;BME280;43392;50.078;13.704;2022-10-30T10:03:15;97516.78;;;14.34;87.64
56894;BME280;43392;50.078;13.704;2022-10-30T10:05:45;97521.25;;;14.43;87.72
56894;BME280;43392;50.078;13.704;2022-10-30T10:08:15;97509.38;;;14.44;87.09
56894;BME280;43392;50.078;13.704;2022-10-30T10:10:44;97519.75;;;14.56;87.01
56894;BME280;43392;50.078;13.704;2022-10-30T10:13:21;97524.03;;;14.62;86.47
56894;BME280;43392;50.078;13.704;2022-10-30T10:15:53;97524.78;;;14.68;86.49
56894;BME280;43392;50.078;13.704;2022-10-30T10:18:27;97516.03;;;14.76;86.60
56894;BME280;43392;50.078;13.704;2022-10-30T10:20:59;97512.19;;;14.82;86.14
56894;BME280;43392;50.078;13.704;2022-10-30T10:23:31;97518.03;;;14.89;85.92
56894;BME280;43392;50.078;13.704;2022-10-30T10:26:05;97515.59;;;14.87;86.25
56894;BME280;43392;50.078;13.704;2022-10-30T10:28:46;97518.03;;;14.89;86.14
56894;BME280;43392;50.078;13.704;2022-10-30T10:31:23;97513.72;;;14.88;86.24
56894;BME280;43392;50.078;13.704;2022-10-30T10:34:05;97512.63;;;14.89;85.97
56894;BME280;43392;50.078;13.704;2022-10-30T10:36:42;97506.94;;;14.90;86.33
56894;BME280;43392;50.078;13.704;2022-10-30T10:39:24;97517.66;;;14.95;86.55
56894;BME280;43392;50.078;13.704;2022-10-30T10:42:05;97513.81;;;15.01;nan
56894;BME280;43392;50.078;13.704;2022-10-30T10:44:43;97510.25;;;15.06;86.29
56894;BME280;43392;50.078;13.704;2022-10-30T10:47:30;97500.47;;;15.10;85.99
56894;BME280;43392;50.078;13.704;2022-10-30T10:50:14;97503.91;;;15.15;85.82
56894;BME280;43392;50.078;13.704;2022-10-30T10:52:47;97499.53;;;15.19;85.79
56894;BME280;43392;50.078;13.704;2022-10-30T10:55:17;97493.75;;;15.26;85.15
56894;BME280;43392;50.078;13.704;2022-10-30T10:57:45;97501.00;;;15.31;85.26
56894;BME280;43392;50.078;13.704;2022-10-30T11:00:15;97495.22;;;15.37;84.81
56894;BME280;43392;50.078;13.704;2022-10-30T11:02:46;97495.97;;;15.43;84.89
56894;BME280;43392;50.078;13.704;2022-10-30T11:05:23;97496.44;;;15.50;84.83
56894;BME280;43392;50.078;13.704;2022-10-30T11:07:52;97497.66;;;15.57;84.77
56894;BME280;43392;50.078;13.704;2022-10-30T11:10:19;97494.56;;;15.64;84.42
56894;BME280;43392;50.078;13.704;2022-10-30T11:12:48;97485.81;;;15.72;84.10
56894;BME280;43392;50.078;13.704;2022-10-30T11:15:21;97497.25;;;15.82;83.66
56894;BME280;43392;50.078;13.704;2022-10-30T11:17:54;97488.38;;;15.96;83.25
56894;BME280;43392;50.078;13.704;2022-10-30T11:20:28;97493.78;;;15.96;83.61
56894;BME280;43392;50.078;13.704;2022-10-30T11:22:57;97491.97;;;15.91;83.19
56894;BME280;43392;50.078;13.704;2022-10-30T11:25:25;97492.06;;;15.86;83.03
56894;BME280;43392;50.078;13.704;2022-10-30T11:27:54;97493.22;;;15.80;83.22
56894;BME280;43392;50.078;13.704;2022-10-30T11:30:23;97488.63;;;15.80;83.40
56894;BME280;43392;50.078;13.704;2022-10-30T11:32:50;97489.28;;;15.91;82.84
56894;BME280;43392;50.078;13.704;2022-10-30T11:35:18;97481.75;;;15.88;83.18
56894;BME280;43392;50.078;13.704;2022-10-30T11:37:48;97478.81;;;15.84;83.46
56894;BME280;43392;50.078;13.704;2022-10-30T11:40:17;97479.13;;;15.83;83.90
56894;BME280;43392;50.078;13.704;2022-10-30T11:42:46;97479.63;;;15.85;83.67
56894;BME280;43392;50.078;13.704;2022-10-30T11:45:15;97480.44;;;15.85;84.00
56894;BME280;43392;50.078;13.704;2022-10-30T11:47:43;97480.63;;;15.89;83.56
56894;BME280;43392;50.078;13.704;2022-10-30T11:50:16;97472.22;;;15.90;83.78
56894;BME280;43392;50.078;13.704;2022-10-30T11:52:44;97471.94;;;15.92;83.55
56894;BME280;43392;50.078;13.704;2022-10-30T11:55:17;97469.63;;;15.99;83.68
56894;BME280;43392;50.078;13.704;2022-10-30T11:57:47;97470.69;;;16.17;83.21
56894;BME280;43392;50.078;13.704;2022-10-30T12:00:17;97464.72;;;16.47;82.62
56894;BME280;43392;50.078;13.704;2022-10-30T12:02:45;97454.06;;;16.64;82.12
56894;BME280;43392;50.078;13.704;2022-10-30T12:05:30;97457.25;;;16.93;81.72
56894;BME280;43392;50.078;13.704;2022-10-30T12:08:16;97453.78;;;17.15;80.84
56894;BME280;43392;50.078;13.704;2022-10-30T12:10:45;97453.16;;;17.32;80.52
56894;BME280;43392;50.078;13.704;2022-10-30T12:13:15;97452.50;;;17.48;79.52
56894;BME280;43392;50.078;13.704;2022-10-30T12:15:44;97457.88;;;17.62;78.20
56894;BME280;43392;50.078;13.704;2022-10-30T12:18:17;97447.59;;;17.72;77.30
56894;BME280;43392;50.078;13.704;2022-10-30T12:20:47;97449.25;;;17.82;76.48
56894;BME280;43392;50.078;13.704;2022-10-30T12:23:17;97437.97;;;17.88;75.93
56894;BME280;43392;50.078;13.704;2022-10-30T12:25:48;97432.41;;;17.94;75.40
56894;BME280;43392;50.078;13.704;2022-10-30T12:28:17;97440.09;;;18.00;75.09
56894;BME280;43392;50.078;13.704;2022-10-30T12:30:49;97438.88;;;18.06;74.68
56894;BME280;43392;50.078;13.704;2022-10-30T12:33:21;97434.91;;;18.12;74.06
56894;BME280;43392;50.078;13.704;2022-10-30T12:35:52;97429.66;;;18.16;74.06
56894;BME280;43392;50.078;13.704;2022-10-30T12:38:24;97433.66;;;18.18;73.82
56894;BME280;43392;50.078;13.704;2022-10-30T12:41:03;97429.19;;;18.22;73.75
56894;BME280;43392;50.078;13.704;2022-10-30T12:43:34;97434.81;;;18.26;73.81
56894;BME280;43392;50.078;13.704;2022-10-30T12:46:16;97424.13;;;18.29;73.66
56894;BME280;43392;50.078;13.704;2022-10-30T12:48:49;97419.69;;;18.33;73.57
56894;BME280;43392;50.078;13.704;2022-10-30T12:51:19;97418.25;;;18.36;73.44
56894;BME280;43392;50.078;13.704;2022-10-30T12:53:53;97416.03;;;18.38;73.27
56894;BME280;43392;50.078;13.704;2022-10-30T12:56:28;97405.16;;;18.38;73.47
56894;BME280;43392;50.078;13.704;2022-10-30T12:59:05;97409.94;;;18.41;72.82
56894;BME280;43392;50.078;13.704;2022-10-30T13:01:41;97407.72;;;18.43;72.99
56894;BME280;43392;50.078;13.704;2022-10-30T13:04:15;97408.50;;;18.43;72.80
56894;BME280;43392;50.078;13.704;2022-10-30T13:06:47;97415.25;;;18.46;72.81